AEE220 LGAV-LGSR
Flight info
| Callsign | AEE220 |
|---|---|
| Flight time | 0h 20m |
| Altitude | 15000 |
| Route | KEA1N KEA L607 NETIS M601 PEXAN PEXAN1E |
| Aircraft | A20N/M-SDE3L/L |
Departure
| Time | 2026-04-20 13:37 |
|---|---|
| Airport | Athens Eleftherios Venizelos International Airport (LGAV) |
Arrival
| Time | 2026-04-20 13:58 |
|---|---|
| Airport | Santorini International Airport (LGSR) |
| Time | Latitude | Longitude | Altitude | Speed | Heading |
|---|---|---|---|---|---|
| 2026-04-20 13:10 | 37.94141 | 23.95094 | 301 ft | 0 kts | 37° |
| 2026-04-20 13:29 | 37.94131 | 23.95084 | 304 ft | 4 kts | 37° |
| 2026-04-20 13:30 | 37.94114 | 23.95067 | 302 ft | 3 kts | 38° |
| 2026-04-20 13:30 | 37.94096 | 23.95044 | 301 ft | 4 kts | 61° |
| 2026-04-20 13:30 | 37.94090 | 23.95015 | 301 ft | 4 kts | 114° |
| 2026-04-20 13:30 | 37.94093 | 23.95007 | 301 ft | 0 kts | 126° |
| 2026-04-20 13:33 | 37.94092 | 23.95007 | 301 ft | 1 kts | 126° |
| 2026-04-20 13:33 | 37.94082 | 23.95025 | 303 ft | 5 kts | 126° |
| 2026-04-20 13:33 | 37.94036 | 23.95104 | 302 ft | 17 kts | 128° |
| 2026-04-20 13:33 | 37.93946 | 23.95264 | 301 ft | 26 kts | 128° |
| 2026-04-20 13:34 | 37.93858 | 23.95454 | 301 ft | 23 kts | 78° |
| 2026-04-20 13:34 | 37.93976 | 23.95571 | 297 ft | 18 kts | 35° |
| 2026-04-20 13:34 | 37.94044 | 23.95630 | 297 ft | 0 kts | 37° |
| 2026-04-20 13:34 | 37.94085 | 23.95685 | 300 ft | 19 kts | 48° |
| 2026-04-20 13:35 | 37.94234 | 23.95832 | 301 ft | 35 kts | 38° |
| 2026-04-20 13:35 | 37.94412 | 23.96000 | 300 ft | 35 kts | 35° |
| 2026-04-20 13:35 | 37.94599 | 23.96165 | 300 ft | 19 kts | 32° |
| 2026-04-20 13:35 | 37.94654 | 23.96249 | 299 ft | 6 kts | 76° |
| 2026-04-20 13:36 | 37.94568 | 23.96318 | 298 ft | 13 kts | 185° |
| 2026-04-20 13:36 | 37.94351 | 23.96224 | 286 ft | 0 kts | 214° |
| 2026-04-20 13:36 | 37.94350 | 23.96224 | 286 ft | 0 kts | 214° |
| 2026-04-20 13:36 | 37.94325 | 23.96203 | 286 ft | 0 kts | 213° |
| 2026-04-20 13:37 | 37.93610 | 23.95502 | 300 ft | 162 kts | 219° |
| 2026-04-20 13:37 | 37.91431 | 23.93382 | 1504 ft | 227 kts | 217° |
| 2026-04-20 13:38 | 37.88837 | 23.90893 | 2895 ft | 262 kts | 219° |
| 2026-04-20 13:38 | 37.85836 | 23.88030 | 4347 ft | 236 kts | 219° |
| 2026-04-20 13:38 | 37.82979 | 23.85621 | 5548 ft | 268 kts | 206° |
| 2026-04-20 13:38 | 37.79111 | 23.84690 | 6679 ft | 296 kts | 184° |
| 2026-04-20 13:39 | 37.75068 | 23.85653 | 7009 ft | 279 kts | 152° |
| 2026-04-20 13:39 | 37.72677 | 23.89282 | 7001 ft | 273 kts | 118° |
| 2026-04-20 13:39 | 37.70914 | 23.93519 | 7016 ft | 274 kts | 118° |
| 2026-04-20 13:39 | 37.69138 | 23.97787 | 7016 ft | 271 kts | 118° |
| 2026-04-20 13:40 | 37.67324 | 24.02145 | 7002 ft | 289 kts | 118° |
| 2026-04-20 13:40 | 37.65464 | 24.06597 | 7016 ft | 289 kts | 118° |
| 2026-04-20 13:40 | 37.63569 | 24.11128 | 7925 ft | 294 kts | 118° |
| 2026-04-20 13:40 | 37.61676 | 24.15654 | 10678 ft | 307 kts | 118° |
| 2026-04-20 13:41 | 37.59506 | 24.20829 | 12126 ft | 358 kts | 117° |
| 2026-04-20 13:41 | 37.57101 | 24.26551 | 14302 ft | 377 kts | 118° |
| 2026-04-20 13:41 | 37.53645 | 24.31543 | 15725 ft | 387 kts | 146° |
| 2026-04-20 13:41 | 37.49011 | 24.35164 | 16013 ft | 409 kts | 150° |
| 2026-04-20 13:42 | 37.43814 | 24.39199 | 16012 ft | 460 kts | 149° |
| 2026-04-20 13:42 | 37.32918 | 24.47749 | 16015 ft | 461 kts | 149° |
| 2026-04-20 13:42 | 37.27468 | 24.52013 | 16012 ft | 461 kts | 149° |
| 2026-04-20 13:43 | 37.22089 | 24.56212 | 16012 ft | 462 kts | 149° |
| 2026-04-20 13:43 | 37.16950 | 24.60219 | 16011 ft | 461 kts | 149° |
| 2026-04-20 13:43 | 37.11566 | 24.64413 | 16013 ft | 462 kts | 149° |
| 2026-04-20 13:43 | 37.06113 | 24.68651 | 16020 ft | 461 kts | 149° |
| 2026-04-20 13:44 | 37.00638 | 24.72896 | 16022 ft | 462 kts | 149° |
| 2026-04-20 13:44 | 36.98797 | 24.74321 | 16023 ft | 462 kts | 149° |
| 2026-04-20 13:44 | 36.95155 | 24.77141 | 16019 ft | 431 kts | 149° |
| 2026-04-20 13:45 | 36.90381 | 24.80835 | 16024 ft | 385 kts | 149° |
| 2026-04-20 13:45 | 36.85786 | 24.84389 | 15972 ft | 387 kts | 149° |
| 2026-04-20 13:45 | 36.81288 | 24.87984 | 15020 ft | 381 kts | 140° |
| 2026-04-20 13:45 | 36.77833 | 24.92769 | 13771 ft | 374 kts | 130° |
| 2026-04-20 13:46 | 36.74520 | 24.97626 | 12475 ft | 365 kts | 130° |
| 2026-04-20 13:46 | 36.71261 | 25.02382 | 11295 ft | 354 kts | 130° |
| 2026-04-20 13:46 | 36.68052 | 25.07045 | 11022 ft | 355 kts | 130° |
| 2026-04-20 13:46 | 36.64846 | 25.11696 | 10817 ft | 352 kts | 130° |
| 2026-04-20 13:47 | 36.63581 | 25.13529 | 10437 ft | 349 kts | 130° |
| 2026-04-20 13:48 | 36.61524 | 25.16508 | 10151 ft | 328 kts | 130° |
| 2026-04-20 13:48 | 36.59450 | 25.19509 | 9936 ft | 306 kts | 130° |
| 2026-04-20 13:48 | 36.58083 | 25.21484 | 9573 ft | 299 kts | 131° |
| 2026-04-20 13:48 | 36.56799 | 25.23340 | 9111 ft | 297 kts | 131° |
| 2026-04-20 13:49 | 36.55458 | 25.25278 | 8652 ft | 295 kts | 131° |
| 2026-04-20 13:49 | 36.54121 | 25.27207 | 8193 ft | 292 kts | 131° |
| 2026-04-20 13:49 | 36.52797 | 25.29118 | 7739 ft | 291 kts | 131° |
| 2026-04-20 13:49 | 36.51477 | 25.31022 | 7277 ft | 289 kts | 131° |
| 2026-04-20 13:50 | 36.50181 | 25.32889 | 6847 ft | 287 kts | 131° |
| 2026-04-20 13:50 | 36.48888 | 25.34750 | 6423 ft | 285 kts | 131° |
| 2026-04-20 13:50 | 36.47607 | 25.36593 | 5942 ft | 284 kts | 131° |
| 2026-04-20 13:50 | 36.46303 | 25.38470 | 5552 ft | 283 kts | 131° |
| 2026-04-20 13:51 | 36.45019 | 25.40319 | 5164 ft | 280 kts | 131° |
| 2026-04-20 13:51 | 36.43865 | 25.41975 | 4810 ft | 277 kts | 131° |
| 2026-04-20 13:51 | 36.42645 | 25.43729 | 4695 ft | 267 kts | 131° |
| 2026-04-20 13:51 | 36.41456 | 25.45436 | 4582 ft | 253 kts | 131° |
| 2026-04-20 13:52 | 36.40344 | 25.47031 | 4446 ft | 236 kts | 131° |
| 2026-04-20 13:52 | 36.39304 | 25.48522 | 4317 ft | 220 kts | 131° |
| 2026-04-20 13:52 | 36.38339 | 25.49916 | 4179 ft | 207 kts | 131° |
| 2026-04-20 13:52 | 36.37414 | 25.51261 | 3863 ft | 205 kts | 131° |
| 2026-04-20 13:53 | 36.36484 | 25.52611 | 3494 ft | 206 kts | 131° |
| 2026-04-20 13:53 | 36.35559 | 25.53948 | 3281 ft | 199 kts | 132° |
| 2026-04-20 13:53 | 36.34635 | 25.55158 | 3148 ft | 188 kts | 135° |
| 2026-04-20 13:53 | 36.33692 | 25.56193 | 2958 ft | 175 kts | 151° |
| 2026-04-20 13:54 | 36.32650 | 25.56783 | 2701 ft | 159 kts | 174° |
| 2026-04-20 13:54 | 36.31615 | 25.56708 | 2445 ft | 143 kts | 201° |
| 2026-04-20 13:54 | 36.30815 | 25.56110 | 2158 ft | 129 kts | 237° |
| 2026-04-20 13:54 | 36.30625 | 25.55114 | 2023 ft | 123 kts | 278° |
| 2026-04-20 13:55 | 36.30954 | 25.54139 | 1964 ft | 124 kts | 307° |
| 2026-04-20 13:55 | 36.31558 | 25.53371 | 1964 ft | 125 kts | 315° |
| 2026-04-20 13:55 | 36.32211 | 25.52650 | 1841 ft | 125 kts | 317° |
| 2026-04-20 13:55 | 36.32892 | 25.51973 | 1617 ft | 125 kts | 322° |
| 2026-04-20 13:56 | 36.33612 | 25.51405 | 1439 ft | 125 kts | 328° |
| 2026-04-20 13:56 | 36.34390 | 25.50924 | 1237 ft | 126 kts | 331° |
| 2026-04-20 13:56 | 36.35165 | 25.50424 | 1082 ft | 124 kts | 330° |
| 2026-04-20 13:56 | 36.35950 | 25.49945 | 929 ft | 125 kts | 331° |
| 2026-04-20 13:57 | 36.36720 | 25.49469 | 726 ft | 124 kts | 331° |
| 2026-04-20 13:57 | 36.37522 | 25.49040 | 565 ft | 128 kts | 337° |
| 2026-04-20 13:57 | 36.38361 | 25.48660 | 295 ft | 127 kts | 336° |
| 2026-04-20 13:57 | 36.39170 | 25.48267 | 98 ft | 127 kts | 335° |
| 2026-04-20 13:58 | 36.39965 | 25.47904 | 89 ft | 110 kts | 337° |
| 2026-04-20 13:58 | 36.40434 | 25.47669 | 89 ft | 35 kts | 335° |
| 2026-04-20 13:58 | 36.40468 | 25.47595 | 92 ft | 11 kts | 259° |
| 2026-04-20 13:58 | 36.40450 | 25.47561 | 92 ft | 0 kts | 236° |
| 2026-04-20 13:59 | 36.40439 | 25.47542 | 90 ft | 9 kts | 236° |
| 2026-04-20 13:59 | 36.40413 | 25.47446 | 91 ft | 7 kts | 247° |
| 2026-04-20 13:59 | 36.40396 | 25.47405 | 92 ft | 9 kts | 249° |
| 2026-04-20 13:59 | 36.40384 | 25.47368 | 91 ft | 2 kts | 249° |
| 2026-04-20 14:00 | 36.40385 | 25.47372 | 91 ft | 0 kts | 249° |